WAJ0031 RJGG-RJFF
Flight info
| Callsign | WAJ0031 |
|---|---|
| Flight time | 1h 6m |
| Altitude | 32000 |
| Route | HIKNE Y207 ARASI Y20 KIRIN |
| Aircraft | A320/M-SDE3FGHIRWY/LB1 |
Departure
| Time | 2026-05-07 12:07 |
|---|---|
| Airport | Chubu Centrair International Airport (RJGG) |
Arrival
| Time | 2026-05-07 13:13 |
|---|---|
| Airport | Fukuoka Airport (RJFF) |
| Time | Latitude | Longitude | Altitude | Speed | Heading |
|---|---|---|---|---|---|
| 2026-05-07 11:48 | 34.85205 | 136.81495 | 28 ft | 0 kts | 78° |
| 2026-05-07 11:59 | 34.85203 | 136.81483 | 28 ft | 4 kts | 75° |
| 2026-05-07 11:59 | 34.85194 | 136.81452 | 28 ft | 4 kts | 64° |
| 2026-05-07 12:00 | 34.85181 | 136.81423 | 28 ft | 4 kts | 53° |
| 2026-05-07 12:00 | 34.85166 | 136.81401 | 28 ft | 1 kts | 50° |
| 2026-05-07 12:02 | 34.85178 | 136.81398 | 28 ft | 8 kts | 345° |
| 2026-05-07 12:02 | 34.85235 | 136.81372 | 28 ft | 9 kts | 349° |
| 2026-05-07 12:02 | 34.85289 | 136.81357 | 28 ft | 7 kts | 347° |
| 2026-05-07 12:03 | 34.85345 | 136.81319 | 28 ft | 12 kts | 303° |
| 2026-05-07 12:03 | 34.85343 | 136.81215 | 28 ft | 18 kts | 259° |
| 2026-05-07 12:03 | 34.85312 | 136.81033 | 28 ft | 23 kts | 258° |
| 2026-05-07 12:03 | 34.85266 | 136.80926 | 28 ft | 12 kts | 204° |
| 2026-05-07 12:04 | 34.85185 | 136.80941 | 28 ft | 13 kts | 161° |
| 2026-05-07 12:04 | 34.85096 | 136.80969 | 28 ft | 14 kts | 168° |
| 2026-05-07 12:04 | 34.84996 | 136.80993 | 28 ft | 15 kts | 169° |
| 2026-05-07 12:04 | 34.84886 | 136.81016 | 28 ft | 17 kts | 170° |
| 2026-05-07 12:05 | 34.84761 | 136.81043 | 28 ft | 21 kts | 168° |
| 2026-05-07 12:05 | 34.84592 | 136.81083 | 28 ft | 26 kts | 169° |
| 2026-05-07 12:05 | 34.84436 | 136.81084 | 27 ft | 20 kts | 230° |
| 2026-05-07 12:05 | 34.84416 | 136.80922 | 25 ft | 20 kts | 271° |
| 2026-05-07 12:06 | 34.84508 | 136.80854 | 27 ft | 15 kts | 347° |
| 2026-05-07 12:06 | 34.84675 | 136.80816 | 27 ft | 52 kts | 349° |
| 2026-05-07 12:06 | 34.85270 | 136.80679 | 26 ft | 119 kts | 349° |
| 2026-05-07 12:06 | 34.86306 | 136.80436 | 139 ft | 171 kts | 348° |
| 2026-05-07 12:07 | 34.87483 | 136.80137 | 765 ft | 173 kts | 347° |
| 2026-05-07 12:07 | 34.88624 | 136.79732 | 1288 ft | 175 kts | 340° |
| 2026-05-07 12:07 | 34.89845 | 136.79222 | 1594 ft | 197 kts | 340° |
| 2026-05-07 12:07 | 34.91215 | 136.78640 | 1848 ft | 220 kts | 339° |
| 2026-05-07 12:08 | 34.92709 | 136.77948 | 2169 ft | 240 kts | 329° |
| 2026-05-07 12:08 | 34.93952 | 136.76502 | 2551 ft | 257 kts | 299° |
| 2026-05-07 12:08 | 34.94857 | 136.74599 | 3354 ft | 261 kts | 300° |
| 2026-05-07 12:08 | 34.95817 | 136.72697 | 4254 ft | 264 kts | 300° |
| 2026-05-07 12:09 | 34.96798 | 136.70803 | 5154 ft | 265 kts | 301° |
| 2026-05-07 12:09 | 34.97778 | 136.68923 | 6018 ft | 267 kts | 300° |
| 2026-05-07 12:09 | 34.98777 | 136.67004 | 6839 ft | 269 kts | 300° |
| 2026-05-07 12:09 | 34.99783 | 136.65058 | 7627 ft | 272 kts | 299° |
| 2026-05-07 12:10 | 35.00792 | 136.63089 | 8430 ft | 275 kts | 298° |
| 2026-05-07 12:10 | 35.01809 | 136.61095 | 9238 ft | 278 kts | 298° |
| 2026-05-07 12:10 | 35.02837 | 136.59074 | 10004 ft | 282 kts | 298° |
| 2026-05-07 12:10 | 35.03890 | 136.56996 | 10428 ft | 298 kts | 298° |
| 2026-05-07 12:11 | 35.05023 | 136.54750 | 10617 ft | 322 kts | 298° |
| 2026-05-07 12:11 | 35.06240 | 136.52337 | 10746 ft | 345 kts | 298° |
| 2026-05-07 12:11 | 35.07538 | 136.49771 | 10928 ft | 364 kts | 299° |
| 2026-05-07 12:11 | 35.08890 | 136.47110 | 11390 ft | 371 kts | 299° |
| 2026-05-07 12:12 | 35.10265 | 136.44412 | 11978 ft | 375 kts | 299° |
| 2026-05-07 12:12 | 35.11634 | 136.41722 | 12594 ft | 379 kts | 299° |
| 2026-05-07 12:12 | 35.13029 | 136.38972 | 13206 ft | 382 kts | 298° |
| 2026-05-07 12:12 | 35.14434 | 136.36200 | 13808 ft | 385 kts | 298° |
| 2026-05-07 12:13 | 35.15850 | 136.33403 | 14367 ft | 388 kts | 298° |
| 2026-05-07 12:13 | 35.17270 | 136.30596 | 14957 ft | 389 kts | 298° |
| 2026-05-07 12:13 | 35.18701 | 136.27763 | 15465 ft | 393 kts | 298° |
| 2026-05-07 12:13 | 35.20143 | 136.24901 | 15976 ft | 396 kts | 298° |
| 2026-05-07 12:14 | 35.21549 | 136.21988 | 16480 ft | 397 kts | 293° |
| 2026-05-07 12:14 | 35.22544 | 136.18845 | 16962 ft | 396 kts | 282° |
| 2026-05-07 12:14 | 35.23015 | 136.15533 | 17448 ft | 395 kts | 271° |
| 2026-05-07 12:14 | 35.22945 | 136.12178 | 17922 ft | 395 kts | 261° |
| 2026-05-07 12:15 | 35.22484 | 136.08907 | 18380 ft | 397 kts | 258° |
| 2026-05-07 12:15 | 35.21994 | 136.05577 | 18836 ft | 397 kts | 258° |
| 2026-05-07 12:15 | 35.21508 | 136.02244 | 19266 ft | 399 kts | 258° |
| 2026-05-07 12:15 | 35.21021 | 135.98898 | 19670 ft | 400 kts | 258° |
| 2026-05-07 12:16 | 35.20530 | 135.95543 | 20068 ft | 402 kts | 258° |
| 2026-05-07 12:16 | 35.20035 | 135.92169 | 20459 ft | 404 kts | 258° |
| 2026-05-07 12:16 | 35.19535 | 135.88779 | 20827 ft | 406 kts | 258° |
| 2026-05-07 12:16 | 35.19030 | 135.85367 | 21196 ft | 408 kts | 258° |
| 2026-05-07 12:17 | 35.18525 | 135.81952 | 21593 ft | 409 kts | 258° |
| 2026-05-07 12:17 | 35.18014 | 135.78529 | 21972 ft | 410 kts | 258° |
| 2026-05-07 12:17 | 35.17467 | 135.75093 | 22311 ft | 412 kts | 257° |
| 2026-05-07 12:17 | 35.16888 | 135.71654 | 22656 ft | 413 kts | 257° |
| 2026-05-07 12:18 | 35.16300 | 135.68258 | 22986 ft | 414 kts | 256° |
| 2026-05-07 12:18 | 35.15692 | 135.64761 | 23325 ft | 416 kts | 256° |
| 2026-05-07 12:18 | 35.15101 | 135.61344 | 23625 ft | 418 kts | 257° |
| 2026-05-07 12:18 | 35.14505 | 135.57866 | 23878 ft | 419 kts | 257° |
| 2026-05-07 12:19 | 35.13910 | 135.54370 | 24146 ft | 421 kts | 257° |
| 2026-05-07 12:19 | 35.13317 | 135.50860 | 24403 ft | 422 kts | 257° |
| 2026-05-07 12:19 | 35.12723 | 135.47337 | 24660 ft | 424 kts | 257° |
| 2026-05-07 12:19 | 35.12126 | 135.43806 | 24906 ft | 425 kts | 257° |
| 2026-05-07 12:20 | 35.11524 | 135.40262 | 25141 ft | 426 kts | 257° |
| 2026-05-07 12:20 | 35.10918 | 135.36707 | 25356 ft | 428 kts | 257° |
| 2026-05-07 12:20 | 35.10308 | 135.33150 | 25575 ft | 429 kts | 257° |
| 2026-05-07 12:20 | 35.09694 | 135.29574 | 25793 ft | 430 kts | 257° |
| 2026-05-07 12:21 | 35.09086 | 135.26040 | 25992 ft | 432 kts | 257° |
| 2026-05-07 12:21 | 35.08468 | 135.22447 | 26238 ft | 432 kts | 257° |
| 2026-05-07 12:21 | 35.07850 | 135.18864 | 26523 ft | 431 kts | 257° |
| 2026-05-07 12:21 | 35.07228 | 135.15283 | 26810 ft | 431 kts | 257° |
| 2026-05-07 12:22 | 35.06608 | 135.11710 | 27088 ft | 430 kts | 257° |
| 2026-05-07 12:22 | 35.05987 | 135.08136 | 27377 ft | 430 kts | 257° |
| 2026-05-07 12:22 | 35.05367 | 135.04566 | 27649 ft | 430 kts | 257° |
| 2026-05-07 12:22 | 35.04746 | 135.00992 | 27926 ft | 430 kts | 257° |
| 2026-05-07 12:23 | 35.04125 | 134.97423 | 28250 ft | 429 kts | 257° |
| 2026-05-07 12:23 | 35.03504 | 134.93859 | 28522 ft | 429 kts | 257° |
| 2026-05-07 12:23 | 35.02883 | 134.90295 | 28838 ft | 428 kts | 257° |
| 2026-05-07 12:23 | 35.02269 | 134.86780 | 29569 ft | 418 kts | 257° |
| 2026-05-07 12:24 | 35.01667 | 134.83336 | 29869 ft | 412 kts | 257° |
| 2026-05-07 12:24 | 35.00468 | 134.76537 | 29933 ft | 409 kts | 257° |
| 2026-05-07 12:25 | 34.99533 | 134.69698 | 29953 ft | 410 kts | 271° |
| 2026-05-07 12:25 | 35.00083 | 134.66266 | 29953 ft | 415 kts | 288° |
| 2026-05-07 12:25 | 35.01511 | 134.63184 | 29955 ft | 423 kts | 306° |
| 2026-05-07 12:25 | 35.03687 | 134.60725 | 29962 ft | 433 kts | 320° |
| 2026-05-07 12:26 | 35.06154 | 134.58664 | 29957 ft | 435 kts | 321° |
| 2026-05-07 12:26 | 35.11202 | 134.54580 | 29960 ft | 435 kts | 321° |
| 2026-05-07 12:27 | 35.16259 | 134.50509 | 29961 ft | 436 kts | 321° |
| 2026-05-07 12:27 | 35.21276 | 134.46345 | 29953 ft | 431 kts | 313° |
| 2026-05-07 12:27 | 35.23187 | 134.43595 | 29951 ft | 419 kts | 296° |
| 2026-05-07 12:28 | 35.24270 | 134.40345 | 29956 ft | 410 kts | 279° |
| 2026-05-07 12:28 | 35.24463 | 134.36905 | 29949 ft | 405 kts | 263° |
| 2026-05-07 12:28 | 35.23824 | 134.33563 | 29950 ft | 404 kts | 248° |
| 2026-05-07 12:28 | 35.22418 | 134.30583 | 29932 ft | 407 kts | 232° |
| 2026-05-07 12:29 | 35.20415 | 134.28113 | 29946 ft | 411 kts | 225° |
| 2026-05-07 12:29 | 35.16198 | 134.23354 | 29957 ft | 413 kts | 225° |
| 2026-05-07 12:30 | 35.11999 | 134.18626 | 29952 ft | 412 kts | 225° |
| 2026-05-07 12:30 | 35.07789 | 134.13881 | 29956 ft | 413 kts | 226° |
| 2026-05-07 12:31 | 35.03567 | 134.09117 | 29947 ft | 413 kts | 226° |
| 2026-05-07 12:31 | 34.99341 | 134.04355 | 29944 ft | 414 kts | 225° |
| 2026-05-07 12:32 | 34.95112 | 133.99600 | 29953 ft | 414 kts | 225° |
| 2026-05-07 12:32 | 34.90876 | 133.94850 | 29943 ft | 413 kts | 225° |
| 2026-05-07 12:33 | 34.84621 | 133.87629 | 29939 ft | 411 kts | 233° |
| 2026-05-07 12:33 | 34.81754 | 133.81688 | 29955 ft | 407 kts | 250° |
| 2026-05-07 12:34 | 34.80260 | 133.75054 | 29949 ft | 407 kts | 256° |
| 2026-05-07 12:34 | 34.78853 | 133.68433 | 29950 ft | 407 kts | 255° |
| 2026-05-07 12:35 | 34.77428 | 133.61755 | 29949 ft | 407 kts | 255° |
| 2026-05-07 12:35 | 34.76008 | 133.55081 | 29941 ft | 407 kts | 255° |
| 2026-05-07 12:36 | 34.74585 | 133.48416 | 29939 ft | 407 kts | 255° |
| 2026-05-07 12:36 | 34.73166 | 133.41759 | 29948 ft | 407 kts | 255° |
| 2026-05-07 12:37 | 34.71736 | 133.35095 | 29936 ft | 407 kts | 255° |
| 2026-05-07 12:37 | 34.70302 | 133.28435 | 29941 ft | 407 kts | 255° |
| 2026-05-07 12:38 | 34.68880 | 133.21810 | 29948 ft | 408 kts | 255° |
| 2026-05-07 12:38 | 34.67447 | 133.15156 | 29933 ft | 407 kts | 255° |
| 2026-05-07 12:39 | 34.65972 | 133.08361 | 29917 ft | 423 kts | 255° |
| 2026-05-07 12:39 | 34.64446 | 133.01355 | 29944 ft | 432 kts | 255° |
| 2026-05-07 12:40 | 34.62905 | 132.94297 | 29931 ft | 432 kts | 255° |
| 2026-05-07 12:40 | 34.61621 | 132.88442 | 29937 ft | 432 kts | 255° |
| 2026-05-07 12:41 | 34.60081 | 132.81390 | 29934 ft | 432 kts | 255° |
| 2026-05-07 12:41 | 34.58538 | 132.74344 | 29935 ft | 431 kts | 255° |
| 2026-05-07 12:42 | 34.56985 | 132.67306 | 29936 ft | 432 kts | 255° |
| 2026-05-07 12:42 | 34.55428 | 132.60271 | 29933 ft | 432 kts | 255° |
| 2026-05-07 12:43 | 34.53867 | 132.53233 | 29936 ft | 432 kts | 255° |
| 2026-05-07 12:43 | 34.52302 | 132.46198 | 29920 ft | 432 kts | 255° |
| 2026-05-07 12:44 | 34.50739 | 132.39203 | 29941 ft | 432 kts | 255° |
| 2026-05-07 12:44 | 34.49163 | 132.32163 | 29934 ft | 432 kts | 254° |
| 2026-05-07 12:45 | 34.47583 | 132.25131 | 29929 ft | 432 kts | 255° |
| 2026-05-07 12:45 | 34.46000 | 132.18092 | 29939 ft | 433 kts | 254° |
| 2026-05-07 12:46 | 34.44407 | 132.11033 | 29948 ft | 438 kts | 254° |
| 2026-05-07 12:46 | 34.42788 | 132.03874 | 29951 ft | 442 kts | 254° |
| 2026-05-07 12:47 | 34.41151 | 131.96671 | 29945 ft | 443 kts | 254° |
| 2026-05-07 12:47 | 34.39510 | 131.89479 | 29929 ft | 443 kts | 254° |
| 2026-05-07 12:48 | 34.37859 | 131.82288 | 29947 ft | 444 kts | 254° |
| 2026-05-07 12:48 | 34.36214 | 131.75131 | 29964 ft | 444 kts | 254° |
| 2026-05-07 12:49 | 34.34582 | 131.68006 | 29939 ft | 433 kts | 254° |
| 2026-05-07 12:49 | 34.32966 | 131.60995 | 29862 ft | 432 kts | 254° |
| 2026-05-07 12:50 | 34.32154 | 131.57506 | 29311 ft | 428 kts | 254° |
| 2026-05-07 12:50 | 34.31345 | 131.54033 | 29063 ft | 429 kts | 254° |
| 2026-05-07 12:50 | 34.30534 | 131.50548 | 28792 ft | 431 kts | 254° |
| 2026-05-07 12:50 | 34.29723 | 131.47054 | 28525 ft | 432 kts | 254° |
| 2026-05-07 12:51 | 34.28910 | 131.43555 | 28285 ft | 432 kts | 254° |
| 2026-05-07 12:51 | 34.28096 | 131.40051 | 28019 ft | 433 kts | 254° |
| 2026-05-07 12:51 | 34.27281 | 131.36555 | 27117 ft | 432 kts | 254° |
| 2026-05-07 12:51 | 34.26463 | 131.33060 | 26004 ft | 432 kts | 254° |
| 2026-05-07 12:52 | 34.25647 | 131.29565 | 24929 ft | 432 kts | 254° |
| 2026-05-07 12:52 | 34.24832 | 131.26071 | 23897 ft | 431 kts | 254° |
| 2026-05-07 12:52 | 34.24017 | 131.22588 | 22767 ft | 430 kts | 254° |
| 2026-05-07 12:52 | 34.23203 | 131.19125 | 21823 ft | 426 kts | 253° |
| 2026-05-07 12:53 | 34.22409 | 131.15752 | 21088 ft | 419 kts | 253° |
| 2026-05-07 12:53 | 34.21617 | 131.12396 | 20340 ft | 413 kts | 253° |
| 2026-05-07 12:53 | 34.20835 | 131.09077 | 19599 ft | 408 kts | 253° |
| 2026-05-07 12:53 | 34.20062 | 131.05796 | 18876 ft | 404 kts | 253° |
| 2026-05-07 12:54 | 34.19292 | 131.02543 | 18255 ft | 400 kts | 252° |
| 2026-05-07 12:54 | 34.18285 | 130.99415 | 17987 ft | 400 kts | 246° |
| 2026-05-07 12:54 | 34.17174 | 130.96339 | 17928 ft | 400 kts | 245° |
| 2026-05-07 12:54 | 34.15902 | 130.93359 | 17682 ft | 395 kts | 242° |
| 2026-05-07 12:55 | 34.14599 | 130.90450 | 16927 ft | 392 kts | 242° |
| 2026-05-07 12:55 | 34.13296 | 130.87574 | 16210 ft | 389 kts | 242° |
| 2026-05-07 12:55 | 34.11991 | 130.84719 | 15492 ft | 386 kts | 242° |
| 2026-05-07 12:55 | 34.10697 | 130.81888 | 14804 ft | 384 kts | 242° |
| 2026-05-07 12:56 | 34.09427 | 130.79113 | 14146 ft | 382 kts | 242° |
| 2026-05-07 12:56 | 34.08142 | 130.76316 | 13452 ft | 380 kts | 242° |
| 2026-05-07 12:56 | 34.06857 | 130.73533 | 12730 ft | 378 kts | 242° |
| 2026-05-07 12:56 | 34.05658 | 130.70940 | 12059 ft | 375 kts | 242° |
| 2026-05-07 12:57 | 34.04391 | 130.68199 | 11360 ft | 373 kts | 242° |
| 2026-05-07 12:57 | 34.03136 | 130.65481 | 10660 ft | 370 kts | 242° |
| 2026-05-07 12:57 | 34.01890 | 130.62782 | 10040 ft | 366 kts | 242° |
| 2026-05-07 12:57 | 34.00680 | 130.60158 | 9866 ft | 348 kts | 242° |
| 2026-05-07 12:58 | 33.99537 | 130.57682 | 9861 ft | 327 kts | 242° |
| 2026-05-07 12:58 | 33.98459 | 130.55353 | 9855 ft | 308 kts | 242° |
| 2026-05-07 12:58 | 33.97443 | 130.53162 | 9853 ft | 291 kts | 242° |
| 2026-05-07 12:58 | 33.96482 | 130.51094 | 9847 ft | 275 kts | 242° |
| 2026-05-07 12:59 | 33.95562 | 130.49114 | 9663 ft | 267 kts | 242° |
| 2026-05-07 12:59 | 33.94668 | 130.47193 | 9456 ft | 259 kts | 242° |
| 2026-05-07 12:59 | 33.93801 | 130.45331 | 9250 ft | 251 kts | 242° |
| 2026-05-07 12:59 | 33.92958 | 130.43522 | 9040 ft | 245 kts | 242° |
| 2026-05-07 13:00 | 33.92129 | 130.41741 | 8720 ft | 242 kts | 242° |
| 2026-05-07 13:00 | 33.91311 | 130.39974 | 8360 ft | 241 kts | 242° |
| 2026-05-07 13:00 | 33.90518 | 130.38254 | 8002 ft | 240 kts | 242° |
| 2026-05-07 13:00 | 33.89712 | 130.36493 | 7629 ft | 240 kts | 242° |
| 2026-05-07 13:01 | 33.88921 | 130.34757 | 7263 ft | 239 kts | 242° |
| 2026-05-07 13:01 | 33.88124 | 130.33000 | 6893 ft | 239 kts | 242° |
| 2026-05-07 13:01 | 33.87330 | 130.31236 | 6514 ft | 239 kts | 242° |
| 2026-05-07 13:01 | 33.86543 | 130.29474 | 6130 ft | 239 kts | 242° |
| 2026-05-07 13:02 | 33.85760 | 130.27713 | 5767 ft | 238 kts | 242° |
| 2026-05-07 13:02 | 33.84983 | 130.25950 | 5404 ft | 236 kts | 242° |
| 2026-05-07 13:02 | 33.84230 | 130.24221 | 5217 ft | 228 kts | 242° |
| 2026-05-07 13:02 | 33.83516 | 130.22568 | 5095 ft | 217 kts | 242° |
| 2026-05-07 13:03 | 33.82837 | 130.20985 | 4967 ft | 208 kts | 242° |
| 2026-05-07 13:03 | 33.82160 | 130.19483 | 4795 ft | 201 kts | 233° |
| 2026-05-07 13:03 | 33.81074 | 130.18519 | 4521 ft | 200 kts | 198° |
| 2026-05-07 13:03 | 33.79690 | 130.18532 | 4208 ft | 205 kts | 168° |
| 2026-05-07 13:04 | 33.78330 | 130.19097 | 3896 ft | 208 kts | 162° |
| 2026-05-07 13:04 | 33.76993 | 130.19748 | 3610 ft | 207 kts | 162° |
| 2026-05-07 13:04 | 33.75663 | 130.20413 | 3328 ft | 207 kts | 162° |
| 2026-05-07 13:04 | 33.74339 | 130.21083 | 3031 ft | 206 kts | 162° |
| 2026-05-07 13:05 | 33.73024 | 130.21769 | 2743 ft | 207 kts | 157° |
| 2026-05-07 13:05 | 33.71881 | 130.22833 | 2465 ft | 211 kts | 136° |
| 2026-05-07 13:05 | 33.70941 | 130.24199 | 2175 ft | 212 kts | 132° |
| 2026-05-07 13:05 | 33.70035 | 130.25597 | 2009 ft | 212 kts | 130° |
| 2026-05-07 13:06 | 33.69125 | 130.26973 | 1987 ft | 206 kts | 131° |
| 2026-05-07 13:06 | 33.68240 | 130.28279 | 1988 ft | 199 kts | 131° |
| 2026-05-07 13:06 | 33.67371 | 130.29560 | 1990 ft | 197 kts | 131° |
| 2026-05-07 13:06 | 33.66507 | 130.30832 | 1991 ft | 196 kts | 131° |
| 2026-05-07 13:07 | 33.65647 | 130.32097 | 1963 ft | 194 kts | 131° |
| 2026-05-07 13:07 | 33.64793 | 130.33353 | 1695 ft | 194 kts | 131° |
| 2026-05-07 13:07 | 33.63930 | 130.34590 | 1510 ft | 193 kts | 135° |
| 2026-05-07 13:07 | 33.62954 | 130.35684 | 1489 ft | 192 kts | 146° |
| 2026-05-07 13:08 | 33.61837 | 130.36562 | 1497 ft | 192 kts | 151° |
| 2026-05-07 13:08 | 33.60684 | 130.37381 | 1496 ft | 192 kts | 152° |
| 2026-05-07 13:08 | 33.59528 | 130.38187 | 1499 ft | 192 kts | 152° |
| 2026-05-07 13:08 | 33.58411 | 130.38968 | 1513 ft | 177 kts | 152° |
| 2026-05-07 13:09 | 33.57411 | 130.39669 | 1483 ft | 159 kts | 152° |
| 2026-05-07 13:09 | 33.56483 | 130.40306 | 1507 ft | 150 kts | 153° |
| 2026-05-07 13:09 | 33.55590 | 130.40919 | 1498 ft | 146 kts | 153° |
| 2026-05-07 13:09 | 33.54714 | 130.41520 | 1492 ft | 145 kts | 153° |
| 2026-05-07 13:10 | 33.53841 | 130.42117 | 1495 ft | 144 kts | 153° |
| 2026-05-07 13:10 | 33.52970 | 130.42721 | 1408 ft | 145 kts | 152° |
| 2026-05-07 13:10 | 33.52230 | 130.43525 | 1294 ft | 148 kts | 122° |
| 2026-05-07 13:10 | 33.52076 | 130.44719 | 1070 ft | 148 kts | 77° |
| 2026-05-07 13:11 | 33.52527 | 130.45813 | 933 ft | 147 kts | 55° |
| 2026-05-07 13:11 | 33.53258 | 130.46650 | 809 ft | 145 kts | 28° |
| 2026-05-07 13:11 | 33.54217 | 130.47005 | 685 ft | 145 kts | 8° |
| 2026-05-07 13:11 | 33.55204 | 130.47045 | 499 ft | 144 kts | 353° |
| 2026-05-07 13:12 | 33.56155 | 130.46707 | 350 ft | 143 kts | 334° |
| 2026-05-07 13:12 | 33.57018 | 130.46127 | 266 ft | 144 kts | 330° |
| 2026-05-07 13:12 | 33.57875 | 130.45545 | 54 ft | 136 kts | 330° |
| 2026-05-07 13:12 | 33.58593 | 130.45065 | 37 ft | 96 kts | 330° |
| 2026-05-07 13:13 | 33.59008 | 130.44794 | 28 ft | 39 kts | 342° |
| 2026-05-07 13:13 | 33.59234 | 130.44768 | 24 ft | 27 kts | 359° |
| 2026-05-07 13:13 | 33.59314 | 130.44767 | 23 ft | 1 kts | 359° |
| 2026-05-07 13:13 | 33.59385 | 130.44744 | 24 ft | 19 kts | 325° |
| 2026-05-07 13:14 | 33.59501 | 130.44669 | 26 ft | 19 kts | 334° |
| 2026-05-07 13:14 | 33.59598 | 130.44608 | 29 ft | 12 kts | 329° |
| 2026-05-07 13:14 | 33.59697 | 130.44537 | 27 ft | 22 kts | 328° |
| 2026-05-07 13:14 | 33.59837 | 130.44445 | 25 ft | 25 kts | 332° |
| 2026-05-07 13:15 | 33.59959 | 130.44369 | 22 ft | 11 kts | 358° |
| 2026-05-07 13:15 | 33.60020 | 130.44408 | 23 ft | 8 kts | 20° |
| 2026-05-07 13:15 | 33.60061 | 130.44414 | 24 ft | 3 kts | 54° |
| 2026-05-07 13:15 | 33.60066 | 130.44430 | 24 ft | 1 kts | 69° |
| 2026-05-07 13:16 | 33.60083 | 130.44472 | 24 ft | 1 kts | 62° |